sensor_id;sensor_type;location;lat;lon;timestamp;temperature;humidity
66156;DHT22;52957;50.848;20.656;2023-12-20T00:00:01;26;83
66156;DHT22;52957;50.848;20.656;2023-12-20T00:07:07;26;83
66156;DHT22;52957;50.848;20.656;2023-12-20T00:14:08;26;83
66156;DHT22;52957;50.848;20.656;2023-12-20T00:21:03;26;83
66156;DHT22;52957;50.848;20.656;2023-12-20T00:28:06;26;83
66156;DHT22;52957;50.848;20.656;2023-12-20T00:42:09;26;83
66156;DHT22;52957;50.848;20.656;2023-12-20T00:49:09;26;83
66156;DHT22;52957;50.848;20.656;2023-12-20T00:56:04;26;83
66156;DHT22;52957;50.848;20.656;2023-12-20T01:00:02;26;83
66156;DHT22;52957;50.848;20.656;2023-12-20T01:07:02;26;83
66156;DHT22;52957;50.848;20.656;2023-12-20T01:14:04;26;83
66156;DHT22;52957;50.848;20.656;2023-12-20T01:21:07;26;83
66156;DHT22;52957;50.848;20.656;2023-12-20T01:28:07;26;83
66156;DHT22;52957;50.848;20.656;2023-12-20T01:35:05;26;83
66156;DHT22;52957;50.848;20.656;2023-12-20T01:42:06;26;83
66156;DHT22;52957;50.848;20.656;2023-12-20T01:49:06;26;83
66156;DHT22;52957;50.848;20.656;2023-12-20T01:56:02;26;83
66156;DHT22;52957;50.848;20.656;2023-12-20T02:00:15;26;83
66156;DHT22;52957;50.848;20.656;2023-12-20T02:07:07;26;83
66156;DHT22;52957;50.848;20.656;2023-12-20T02:14:06;26;83
66156;DHT22;52957;50.848;20.656;2023-12-20T02:21:05;26;83
66156;DHT22;52957;50.848;20.656;2023-12-20T02:28:11;26;83
66156;DHT22;52957;50.848;20.656;2023-12-20T02:42:02;26;83
66156;DHT22;52957;50.848;20.656;2023-12-20T02:49:07;26;83
66156;DHT22;52957;50.848;20.656;2023-12-20T02:56:07;26;83
66156;DHT22;52957;50.848;20.656;2023-12-20T03:00:03;26;83
66156;DHT22;52957;50.848;20.656;2023-12-20T03:07:09;26;83
66156;DHT22;52957;50.848;20.656;2023-12-20T03:14:08;26;83
66156;DHT22;52957;50.848;20.656;2023-12-20T03:21:09;26;83
66156;DHT22;52957;50.848;20.656;2023-12-20T03:28:04;26;83
66156;DHT22;52957;50.848;20.656;2023-12-20T03:35:07;26;83
66156;DHT22;52957;50.848;20.656;2023-12-20T03:42:03;26;83
66156;DHT22;52957;50.848;20.656;2023-12-20T03:49:05;26;83
66156;DHT22;52957;50.848;20.656;2023-12-20T03:56:07;26;83
66156;DHT22;52957;50.848;20.656;2023-12-20T04:00:06;26;83
66156;DHT22;52957;50.848;20.656;2023-12-20T04:07:04;26;84
66156;DHT22;52957;50.848;20.656;2023-12-20T04:14:08;26;84
66156;DHT22;52957;50.848;20.656;2023-12-20T04:21:07;26;84
66156;DHT22;52957;50.848;20.656;2023-12-20T04:28:06;26;84
66156;DHT22;52957;50.848;20.656;2023-12-20T04:35:08;26;84
66156;DHT22;52957;50.848;20.656;2023-12-20T04:42:05;26;84
66156;DHT22;52957;50.848;20.656;2023-12-20T04:49:09;26;84
66156;DHT22;52957;50.848;20.656;2023-12-20T04:56:05;26;84
66156;DHT22;52957;50.848;20.656;2023-12-20T05:00:15;26;84
66156;DHT22;52957;50.848;20.656;2023-12-20T05:07:08;26;82
66156;DHT22;52957;50.848;20.656;2023-12-20T05:14:06;26;82
66156;DHT22;52957;50.848;20.656;2023-12-20T05:21:09;26;82
66156;DHT22;52957;50.848;20.656;2023-12-20T05:28:07;26;82
66156;DHT22;52957;50.848;20.656;2023-12-20T05:35:03;26;82
66156;DHT22;52957;50.848;20.656;2023-12-20T05:42:09;26;82
66156;DHT22;52957;50.848;20.656;2023-12-20T05:49:06;26;82
66156;DHT22;52957;50.848;20.656;2023-12-20T05:56:02;26;82
66156;DHT22;52957;50.848;20.656;2023-12-20T06:00:06;26;82
66156;DHT22;52957;50.848;20.656;2023-12-20T06:07:02;26;84
66156;DHT22;52957;50.848;20.656;2023-12-20T06:14:08;26;84
66156;DHT22;52957;50.848;20.656;2023-12-20T06:21:04;26;84
66156;DHT22;52957;50.848;20.656;2023-12-20T06:28:15;26;84
66156;DHT22;52957;50.848;20.656;2023-12-20T06:35:09;26;84
66156;DHT22;52957;50.848;20.656;2023-12-20T06:42:07;26;84
66156;DHT22;52957;50.848;20.656;2023-12-20T06:49:02;26;84
66156;DHT22;52957;50.848;20.656;2023-12-20T06:56:10;26;84
66156;DHT22;52957;50.848;20.656;2023-12-20T07:00:04;26;84
66156;DHT22;52957;50.848;20.656;2023-12-20T07:07:05;26;83
66156;DHT22;52957;50.848;20.656;2023-12-20T07:14:04;26;83
66156;DHT22;52957;50.848;20.656;2023-12-20T07:21:10;26;83
66156;DHT22;52957;50.848;20.656;2023-12-20T07:28:07;26;83
66156;DHT22;52957;50.848;20.656;2023-12-20T07:35:03;26;83
66156;DHT22;52957;50.848;20.656;2023-12-20T07:42:04;26;83
66156;DHT22;52957;50.848;20.656;2023-12-20T07:49:09;26;83
66156;DHT22;52957;50.848;20.656;2023-12-20T07:56:16;26;83
66156;DHT22;52957;50.848;20.656;2023-12-20T08:00:08;26;83
66156;DHT22;52957;50.848;20.656;2023-12-20T08:14:06;26;83
66156;DHT22;52957;50.848;20.656;2023-12-20T08:21:03;26;83
66156;DHT22;52957;50.848;20.656;2023-12-20T08:28:02;26;83
66156;DHT22;52957;50.848;20.656;2023-12-20T08:42:04;26;83
66156;DHT22;52957;50.848;20.656;2023-12-20T08:49:04;26;83
66156;DHT22;52957;50.848;20.656;2023-12-20T08:56:05;26;83
66156;DHT22;52957;50.848;20.656;2023-12-20T09:00:05;26;83
66156;DHT22;52957;50.848;20.656;2023-12-20T09:14:05;27;78
66156;DHT22;52957;50.848;20.656;2023-12-20T09:21:06;27;78
66156;DHT22;52957;50.848;20.656;2023-12-20T09:28:07;27;78
66156;DHT22;52957;50.848;20.656;2023-12-20T09:35:10;27;78
66156;DHT22;52957;50.848;20.656;2023-12-20T09:42:19;27;78
66156;DHT22;52957;50.848;20.656;2023-12-20T09:49:13;27;78
66156;DHT22;52957;50.848;20.656;2023-12-20T09:56:08;27;78
66156;DHT22;52957;50.848;20.656;2023-12-20T10:00:07;27;78
66156;DHT22;52957;50.848;20.656;2023-12-20T10:14:05;26;78
66156;DHT22;52957;50.848;20.656;2023-12-20T10:21:07;26;78
66156;DHT22;52957;50.848;20.656;2023-12-20T10:28:10;26;78
66156;DHT22;52957;50.848;20.656;2023-12-20T10:35:10;26;78
66156;DHT22;52957;50.848;20.656;2023-12-20T10:42:08;26;78
66156;DHT22;52957;50.848;20.656;2023-12-20T10:49:03;26;78
66156;DHT22;52957;50.848;20.656;2023-12-20T10:56:16;26;78
66156;DHT22;52957;50.848;20.656;2023-12-20T11:00:19;26;78
66156;DHT22;52957;50.848;20.656;2023-12-20T11:14:15;26;77
66156;DHT22;52957;50.848;20.656;2023-12-20T11:21:08;26;77
66156;DHT22;52957;50.848;20.656;2023-12-20T11:28:22;26;77
66156;DHT22;52957;50.848;20.656;2023-12-20T11:35:17;26;77
66156;DHT22;52957;50.848;20.656;2023-12-20T11:42:13;26;77
66156;DHT22;52957;50.848;20.656;2023-12-20T11:49:05;26;77
66156;DHT22;52957;50.848;20.656;2023-12-20T11:56:11;26;77
66156;DHT22;52957;50.848;20.656;2023-12-20T12:00:04;26;77
66156;DHT22;52957;50.848;20.656;2023-12-20T12:14:03;26;76
66156;DHT22;52957;50.848;20.656;2023-12-20T12:21:09;26;76
66156;DHT22;52957;50.848;20.656;2023-12-20T12:28:09;26;76
66156;DHT22;52957;50.848;20.656;2023-12-20T12:35:12;26;76
66156;DHT22;52957;50.848;20.656;2023-12-20T12:42:02;26;76
66156;DHT22;52957;50.848;20.656;2023-12-20T12:49:05;26;76
66156;DHT22;52957;50.848;20.656;2023-12-20T12:56:05;26;76
66156;DHT22;52957;50.848;20.656;2023-12-20T13:00:05;26;76
66156;DHT22;52957;50.848;20.656;2023-12-20T13:14:15;27;74
66156;DHT22;52957;50.848;20.656;2023-12-20T13:21:07;27;74
66156;DHT22;52957;50.848;20.656;2023-12-20T13:28:06;27;74
66156;DHT22;52957;50.848;20.656;2023-12-20T13:35:07;27;74
66156;DHT22;52957;50.848;20.656;2023-12-20T13:42:05;27;74
66156;DHT22;52957;50.848;20.656;2023-12-20T13:49:09;27;74
66156;DHT22;52957;50.848;20.656;2023-12-20T13:56:08;27;74
66156;DHT22;52957;50.848;20.656;2023-12-20T14:00:06;27;74
66156;DHT22;52957;50.848;20.656;2023-12-20T14:07:06;27;74
66156;DHT22;52957;50.848;20.656;2023-12-20T14:07:30;27;73
66156;DHT22;52957;50.848;20.656;2023-12-20T14:14:04;27;73
66156;DHT22;52957;50.848;20.656;2023-12-20T14:21:07;27;73
66156;DHT22;52957;50.848;20.656;2023-12-20T14:28:05;27;73
66156;DHT22;52957;50.848;20.656;2023-12-20T14:37:30;27;73
66156;DHT22;52957;50.848;20.656;2023-12-20T15:08:31;27;73
66156;DHT22;52957;50.848;20.656;2023-12-20T15:08:31;27;73
66156;DHT22;52957;50.848;20.656;2023-12-20T15:08:31;27;73
66156;DHT22;52957;50.848;20.656;2023-12-20T15:08:31;27;73
66156;DHT22;52957;50.848;20.656;2023-12-20T15:08:31;27;73
66156;DHT22;52957;50.848;20.656;2023-12-20T15:08:31;27;73
66156;DHT22;52957;50.848;20.656;2023-12-20T15:08:31;27;73
66156;DHT22;52957;50.848;20.656;2023-12-20T15:38:31;27;73
66156;DHT22;52957;50.848;20.656;2023-12-20T15:38:31;27;73
66156;DHT22;52957;50.848;20.656;2023-12-20T15:38:31;27;73
66156;DHT22;52957;50.848;20.656;2023-12-20T15:38:31;27;73
66156;DHT22;52957;50.848;20.656;2023-12-20T16:08:31;27;73
66156;DHT22;52957;50.848;20.656;2023-12-20T16:08:31;27;73
66156;DHT22;52957;50.848;20.656;2023-12-20T16:38:31;27;73
66156;DHT22;52957;50.848;20.656;2023-12-20T16:47:03;27;73
66156;DHT22;52957;50.848;20.656;2023-12-20T16:50:12;27;73
66156;DHT22;52957;50.848;20.656;2023-12-20T17:00:14;27;73
66156;DHT22;52957;50.848;20.656;2023-12-20T17:10:09;27;73
66156;DHT22;52957;50.848;20.656;2023-12-20T17:30:04;27;73
66156;DHT22;52957;50.848;20.656;2023-12-20T17:30:57;27;73
66156;DHT22;52957;50.848;20.656;2023-12-20T17:37:12;27;73
66156;DHT22;52957;50.848;20.656;2023-12-20T17:40:03;27;73
66156;DHT22;52957;50.848;20.656;2023-12-20T17:50:10;27;73
66156;DHT22;52957;50.848;20.656;2023-12-20T17:56:57;27;73
66156;DHT22;52957;50.848;20.656;2023-12-20T17:57:27;27;73
66156;DHT22;52957;50.848;20.656;2023-12-20T17:58:05;27;73
66156;DHT22;52957;50.848;20.656;2023-12-20T18:00:11;27;73
66156;DHT22;52957;50.848;20.656;2023-12-20T18:02:20;27;73
66156;DHT22;52957;50.848;20.656;2023-12-20T18:18:39;27;78
66156;DHT22;52957;50.848;20.656;2023-12-20T18:30:08;27;78
66156;DHT22;52957;50.848;20.656;2023-12-20T19:00:12;26;81
66156;DHT22;52957;50.848;20.656;2023-12-20T19:30:09;26;81
66156;DHT22;52957;50.848;20.656;2023-12-20T20:00:08;26;81
66156;DHT22;52957;50.848;20.656;2023-12-20T20:30:08;26;79
66156;DHT22;52957;50.848;20.656;2023-12-20T20:48:24;26;79
66156;DHT22;52957;50.848;20.656;2023-12-20T21:00:03;26;79
66156;DHT22;52957;50.848;20.656;2023-12-20T21:20:07;26;78
66156;DHT22;52957;50.848;20.656;2023-12-20T21:40:03;26;78
66156;DHT22;52957;50.848;20.656;2023-12-20T21:50:41;26;78
66156;DHT22;52957;50.848;20.656;2023-12-20T22:00:02;26;78
66156;DHT22;52957;50.848;20.656;2023-12-20T22:30:04;26;80
66156;DHT22;52957;50.848;20.656;2023-12-20T23:00:09;26;80
66156;DHT22;52957;50.848;20.656;2023-12-20T23:15:03;26;77
66156;DHT22;52957;50.848;20.656;2023-12-20T23:30:10;26;77
66156;DHT22;52957;50.848;20.656;2023-12-20T23:45:01;26;77
